Time,TemperatureF,DewpointF,PressureIn,WindDirection,WindDirectionDegrees,WindSpeedMPH,WindSpeedGustMPH,Humidity,HourlyPrecipIn,Conditions,Clouds,dailyrainin,SolarRadiationWatts/m^2,SoftwareType,DateUTC
2013-10-13 00:03:00,-999.0,-99.9,-100.00,ESE,106,5.0,11.0,-999,-99.99,,,-99.99,0.000000,,2013-10-13 04:03:00,
2013-10-13 00:14:00,80.0,67.0,-100.00,ESE,106,5.0,11.0,64,0.00,,,0.00,0.000000,,2013-10-13 04:14:00,
2013-10-13 00:24:00,80.0,67.0,-100.00,ESE,106,5.0,11.0,64,0.00,,,0.00,0.000000,,2013-10-13 04:24:00,
2013-10-13 00:34:00,80.0,67.0,-100.00,ESE,106,5.0,11.0,64,0.00,,,0.00,0.000000,,2013-10-13 04:34:00,
2013-10-13 01:13:00,79.0,66.0,-100.00,ESE,109,4.0,12.0,65,0.00,,,0.00,0.000000,,2013-10-13 05:13:00,
2013-10-13 01:23:00,79.0,66.0,-100.00,ESE,109,4.0,12.0,65,0.00,,,0.00,0.000000,,2013-10-13 05:23:00,
2013-10-13 01:34:00,79.0,66.0,-100.00,ESE,109,4.0,12.0,65,0.00,,,0.00,0.000000,,2013-10-13 05:34:00,
2013-10-13 02:12:00,80.0,67.0,-100.00,East,91,6.0,10.0,64,0.00,,,0.00,0.000000,,2013-10-13 06:12:00,
2013-10-13 02:22:00,80.0,67.0,-100.00,East,91,6.0,10.0,64,0.00,,,0.00,0.000000,,2013-10-13 06:22:00,
2013-10-13 02:32:00,80.0,67.0,-100.00,East,91,6.0,10.0,64,0.00,,,0.00,0.000000,,2013-10-13 06:32:00,
2013-10-13 03:11:00,80.0,67.0,-100.00,ESE,110,4.0,11.0,64,0.00,,,0.00,0.000000,,2013-10-13 07:11:00,
2013-10-13 03:22:00,80.0,67.0,-100.00,ESE,110,4.0,11.0,64,0.00,,,0.00,0.000000,,2013-10-13 07:22:00,
2013-10-13 03:32:00,80.0,67.0,-100.00,ESE,110,4.0,11.0,64,0.00,,,0.00,0.000000,,2013-10-13 07:32:00,
2013-10-13 04:12:00,80.0,67.0,-100.00,East,90,5.0,10.0,64,0.00,,,0.00,0.000000,,2013-10-13 08:12:00,
2013-10-13 04:22:00,80.0,67.0,-100.00,East,90,5.0,10.0,64,0.00,,,0.00,0.000000,,2013-10-13 08:22:00,
2013-10-13 04:32:00,80.0,67.0,-100.00,East,90,5.0,10.0,64,0.00,,,0.00,0.000000,,2013-10-13 08:32:00,
2013-10-13 05:12:00,79.0,66.0,-100.00,East,89,5.0,11.0,64,0.00,,,0.00,0.000000,,2013-10-13 09:12:00,
2013-10-13 05:22:00,79.0,66.0,-100.00,East,89,5.0,11.0,64,0.00,,,0.00,0.000000,,2013-10-13 09:22:00,
2013-10-13 05:33:00,79.0,66.0,-100.00,East,89,5.0,11.0,64,0.00,,,0.00,0.000000,,2013-10-13 09:33:00,
2013-10-13 06:13:00,79.0,67.0,-100.00,East,81,5.0,9.0,66,0.00,,,0.00,0.000000,,2013-10-13 10:13:00,
2013-10-13 06:23:00,79.0,67.0,-100.00,East,81,5.0,9.0,66,0.00,,,0.00,0.000000,,2013-10-13 10:23:00,
2013-10-13 06:33:00,79.0,67.0,-100.00,East,81,5.0,9.0,66,0.00,,,0.00,0.000000,,2013-10-13 10:33:00,
2013-10-13 07:12:00,79.0,66.0,-100.00,East,80,5.0,9.0,65,0.00,,,0.00,0.000000,,2013-10-13 11:12:00,
2013-10-13 07:22:00,79.0,66.0,-100.00,East,80,5.0,9.0,65,0.00,,,0.00,0.000000,,2013-10-13 11:22:00,
2013-10-13 07:33:00,79.0,66.0,-100.00,East,80,5.0,9.0,65,0.00,,,0.00,0.000000,,2013-10-13 11:33:00,
2013-10-13 08:12:00,79.0,67.0,-100.00,East,84,4.0,8.0,67,0.00,,,0.00,2.000000,,2013-10-13 12:12:00,
2013-10-13 08:22:00,79.0,67.0,-100.00,East,84,4.0,8.0,67,0.00,,,0.00,2.000000,,2013-10-13 12:22:00,
2013-10-13 08:32:00,79.0,67.0,-100.00,East,84,4.0,8.0,67,0.00,,,0.00,2.000000,,2013-10-13 12:32:00,
2013-10-13 09:12:00,82.0,67.0,-100.00,East,79,5.0,11.0,60,0.00,,,0.00,86.000000,,2013-10-13 13:12:00,
2013-10-13 09:22:00,82.0,67.0,-100.00,East,79,5.0,11.0,60,0.00,,,0.00,86.000000,,2013-10-13 13:22:00,
2013-10-13 09:32:00,82.0,67.0,-100.00,East,79,5.0,11.0,60,0.00,,,0.00,86.000000,,2013-10-13 13:32:00,
2013-10-13 10:11:00,84.0,67.0,-100.00,East,82,6.0,10.0,57,0.00,,,0.00,307.000000,,2013-10-13 14:11:00,
2013-10-13 10:22:00,84.0,67.0,-100.00,East,82,6.0,10.0,57,0.00,,,0.00,307.000000,,2013-10-13 14:22:00,
2013-10-13 10:32:00,84.0,67.0,-100.00,East,82,6.0,10.0,57,0.00,,,0.00,307.000000,,2013-10-13 14:32:00,
2013-10-13 11:12:00,85.0,68.0,-100.00,ENE,67,6.0,11.0,56,0.00,,,0.00,477.000000,,2013-10-13 15:12:00,
2013-10-13 11:22:00,85.0,68.0,-100.00,ENE,67,6.0,11.0,56,0.00,,,0.00,477.000000,,2013-10-13 15:22:00,
2013-10-13 11:33:00,85.0,68.0,-100.00,ENE,67,6.0,11.0,56,0.00,,,0.00,477.000000,,2013-10-13 15:33:00,
2013-10-13 12:13:00,85.0,68.0,-100.00,ENE,68,7.0,13.0,56,0.00,,,0.00,644.000000,,2013-10-13 16:13:00,
2013-10-13 12:24:00,85.0,68.0,-100.00,ENE,68,7.0,13.0,56,0.00,,,0.00,644.000000,,2013-10-13 16:24:00,
2013-10-13 12:33:00,85.0,68.0,-100.00,ENE,68,7.0,13.0,56,0.00,,,0.00,644.000000,,2013-10-13 16:33:00,
2013-10-13 13:13:00,86.0,66.0,-100.00,ENE,68,8.0,13.0,52,0.00,,,0.00,745.000000,,2013-10-13 17:13:00,
2013-10-13 13:22:00,86.0,66.0,-100.00,ENE,68,8.0,13.0,52,0.00,,,0.00,745.000000,,2013-10-13 17:22:00,
2013-10-13 13:34:00,86.0,66.0,-100.00,ENE,68,8.0,13.0,52,0.00,,,0.00,745.000000,,2013-10-13 17:34:00,
2013-10-13 14:12:00,86.0,67.0,-100.00,ENE,72,8.0,14.0,54,0.00,,,0.00,793.000000,,2013-10-13 18:12:00,
2013-10-13 14:22:00,86.0,67.0,-100.00,ENE,72,8.0,14.0,54,0.00,,,0.00,793.000000,,2013-10-13 18:22:00,
2013-10-13 14:32:00,86.0,67.0,-100.00,ENE,72,8.0,14.0,54,0.00,,,0.00,793.000000,,2013-10-13 18:32:00,
2013-10-13 15:11:00,87.0,68.0,-100.00,ENE,58,7.0,12.0,53,0.00,,,0.00,756.000000,,2013-10-13 19:11:00,
2013-10-13 15:22:00,87.0,68.0,-100.00,ENE,58,7.0,12.0,53,0.00,,,0.00,756.000000,,2013-10-13 19:22:00,
2013-10-13 15:32:00,87.0,68.0,-100.00,ENE,58,7.0,12.0,53,0.00,,,0.00,756.000000,,2013-10-13 19:32:00,
2013-10-13 16:12:00,87.0,66.0,-100.00,East,79,6.0,12.0,50,0.00,,,0.00,677.000000,,2013-10-13 20:12:00,
2013-10-13 16:22:00,87.0,66.0,-100.00,East,79,6.0,12.0,50,0.00,,,0.00,677.000000,,2013-10-13 20:22:00,
2013-10-13 16:32:00,87.0,66.0,-100.00,East,79,6.0,12.0,50,0.00,,,0.00,677.000000,,2013-10-13 20:32:00,
2013-10-13 17:11:00,86.0,67.0,-100.00,East,80,6.0,12.0,53,0.00,,,0.00,513.000000,,2013-10-13 21:11:00,
2013-10-13 17:22:00,86.0,67.0,-100.00,East,80,6.0,12.0,53,0.00,,,0.00,513.000000,,2013-10-13 21:22:00,
2013-10-13 17:34:00,86.0,67.0,-100.00,East,80,6.0,12.0,53,0.00,,,0.00,513.000000,,2013-10-13 21:34:00,
2013-10-13 18:13:00,84.0,67.0,-100.00,East,94,6.0,10.0,56,0.00,,,0.00,280.000000,,2013-10-13 22:13:00,
2013-10-13 18:24:00,84.0,67.0,-100.00,East,94,6.0,10.0,56,0.00,,,0.00,280.000000,,2013-10-13 22:24:00,
2013-10-13 18:32:00,84.0,67.0,-100.00,East,94,6.0,10.0,56,0.00,,,0.00,280.000000,,2013-10-13 22:32:00,
2013-10-13 19:12:00,82.0,66.0,-100.00,East,91,5.0,10.0,59,0.00,,,0.00,130.000000,,2013-10-13 23:12:00,
2013-10-13 19:22:00,82.0,66.0,-100.00,East,91,5.0,10.0,59,0.00,,,0.00,130.000000,,2013-10-13 23:22:00,
2013-10-13 19:34:00,82.0,66.0,-100.00,East,91,5.0,10.0,59,0.00,,,0.00,130.000000,,2013-10-13 23:34:00,
2013-10-13 20:12:00,80.0,66.0,-100.00,East,88,6.0,12.0,62,0.00,,,0.00,8.000000,,2013-10-14 00:12:00,
2013-10-13 20:22:00,80.0,66.0,-100.00,East,88,6.0,12.0,62,0.00,,,0.00,8.000000,,2013-10-14 00:22:00,
2013-10-13 20:32:00,80.0,66.0,-100.00,East,88,6.0,12.0,62,0.00,,,0.00,8.000000,,2013-10-14 00:32:00,
2013-10-13 21:11:00,80.0,67.0,-100.00,East,83,7.0,13.0,64,0.00,,,0.00,0.000000,,2013-10-14 01:11:00,
2013-10-13 21:22:00,80.0,67.0,-100.00,East,83,7.0,13.0,64,0.00,,,0.00,0.000000,,2013-10-14 01:22:00,
2013-10-13 21:32:00,80.0,67.0,-100.00,East,83,7.0,13.0,64,0.00,,,0.00,0.000000,,2013-10-14 01:32:00,
2013-10-13 22:12:00,80.0,68.0,-100.00,East,90,7.0,15.0,66,0.00,,,0.00,0.000000,,2013-10-14 02:12:00,
2013-10-13 22:22:00,80.0,68.0,-100.00,East,90,7.0,15.0,66,0.00,,,0.00,0.000000,,2013-10-14 02:22:00,
2013-10-13 22:32:00,80.0,68.0,-100.00,East,90,7.0,15.0,66,0.00,,,0.00,0.000000,,2013-10-14 02:32:00,
2013-10-13 23:12:00,80.0,67.0,-100.00,East,80,7.0,16.0,64,0.00,,,0.00,0.000000,,2013-10-14 03:12:00,
2013-10-13 23:22:00,80.0,67.0,-100.00,East,80,7.0,16.0,64,0.00,,,0.00,0.000000,,2013-10-14 03:22:00,
2013-10-13 23:33:00,80.0,67.0,-100.00,East,80,7.0,16.0,64,0.00,,,0.00,0.000000,,2013-10-14 03:33:00,